Time;durP1;ratioP1;P1;durP2;ratioP2;P2;SDS_P1;SDS_P2;PMS_P1;PMS_P2;Temp;Humidity;BMP_temperature;BMP_pressure;BME280_temperature;BME280_humidity;BME280_pressure;Samples;Min_cycle;Max_cycle;Signal;HPM_P1;HPM_P2
2020/12/27 00:01:29;;;;;;;8.20;5.27;;;;;;;1.12;70.64;96282.94;5054748;28;20179;-58
2020/12/27 00:03:55;;;;;;;6.10;4.17;;;;;;;1.29;69.84;96276.69;5055232;28;20188;-57
2020/12/27 00:06:28;;;;;;;6.03;3.80;;;;;;;1.03;69.81;96278.78;5054728;28;20445;-61
2020/12/27 00:08:53;;;;;;;5.40;3.57;;;;;;;0.87;71.28;96273.69;5055145;28;20259;-58
2020/12/27 00:11:18;;;;;;;4.43;3.70;;;;;;;0.59;72.65;96264.72;5054747;28;20509;-58
2020/12/27 00:13:44;;;;;;;3.63;2.97;;;;;;;0.57;72.29;96266.66;5054560;28;20615;-58
2020/12/27 00:16:09;;;;;;;4.50;3.50;;;;;;;0.60;73.03;96266.31;5055023;28;20250;-57
2020/12/27 00:18:34;;;;;;;5.70;4.03;;;;;;;0.75;72.43;96260.31;5054881;28;20195;-59
2020/12/27 00:21:00;;;;;;;4.10;3.70;;;;;;;0.67;72.11;96252.56;5054605;28;20286;-57
2020/12/27 00:23:25;;;;;;;3.67;3.37;;;;;;;0.68;72.34;96240.47;5055111;28;20167;-57
2020/12/27 00:25:51;;;;;;;6.20;3.67;;;;;;;0.90;71.27;96237.97;5054558;28;20171;-57
2020/12/27 00:28:16;;;;;;;4.50;3.63;;;;;;;1.00;70.76;96240.31;5054254;28;20203;-57
2020/12/27 00:30:41;;;;;;;5.67;3.77;;;;;;;1.05;71.25;96219.94;5054591;28;20276;-57
2020/12/27 00:33:07;;;;;;;7.63;4.00;;;;;;;0.95;71.11;96209.81;5054741;28;20195;-57
2020/12/27 00:35:32;;;;;;;4.53;3.40;;;;;;;0.76;71.07;96217.19;5053466;28;20530;-60
2020/12/27 00:37:57;;;;;;;4.27;3.93;;;;;;;0.78;71.19;96208.25;5054206;28;20221;-59
2020/12/27 00:40:23;;;;;;;6.20;4.67;;;;;;;0.63;71.90;96198.81;5054432;28;20357;-59
2020/12/27 00:42:48;;;;;;;5.53;4.17;;;;;;;0.43;72.91;96193.25;5054652;28;20218;-59
2020/12/27 00:45:13;;;;;;;6.23;3.40;;;;;;;0.36;73.56;96178.56;5054805;28;20221;-57
2020/12/27 00:47:39;;;;;;;4.40;4.00;;;;;;;0.04;75.27;96173.53;5053806;28;20602;-59
2020/12/27 00:50:05;;;;;;;7.60;5.00;;;;;;;0.02;75.52;96170.28;5054332;28;20441;-59
2020/12/27 00:52:30;;;;;;;5.73;3.90;;;;;;;0.08;75.63;96169.63;5054284;28;20281;-58
2020/12/27 00:54:56;;;;;;;4.63;4.23;;;;;;;0.21;75.24;96159.56;5054702;28;20217;-57
2020/12/27 00:57:21;;;;;;;5.30;4.80;;;;;;;0.15;75.30;96161.03;5053967;28;20186;-58
2020/12/27 00:59:46;;;;;;;3.40;3.07;;;;;;;0.25;75.84;96148.75;5054439;28;20196;-59
2020/12/27 01:02:12;;;;;;;5.97;4.37;;;;;;;0.52;75.27;96132.00;5053981;28;20186;-57
2020/12/27 01:04:39;;;;;;;4.67;4.10;;;;;;;0.41;74.85;96127.22;5054230;28;20171;-59
2020/12/27 01:07:04;;;;;;;6.13;4.90;;;;;;;0.35;75.17;96112.38;5054086;28;20480;-57
2020/12/27 01:09:29;;;;;;;4.93;4.23;;;;;;;0.15;75.71;96111.16;5053755;28;20483;-58
2020/12/27 01:11:55;;;;;;;6.20;4.97;;;;;;;0.22;76.71;96117.28;5053574;28;20541;-59
2020/12/27 01:14:20;;;;;;;5.90;4.53;;;;;;;0.00;76.36;96105.94;5053824;28;20284;-60
2020/12/27 01:16:47;;;;;;;4.37;3.80;;;;;;;0.37;76.18;96108.66;5053174;28;20264;-59
2020/12/27 01:19:12;;;;;;;4.33;3.93;;;;;;;0.67;75.35;96114.81;5053343;28;20564;-58
2020/12/27 01:21:41;;;;;;;7.33;4.07;;;;;;;0.76;74.22;96111.97;5052074;28;20421;-59
2020/12/27 01:24:07;;;;;;;4.70;4.30;;;;;;;0.64;74.39;96102.22;5053668;28;20639;-60
2020/12/27 01:26:34;;;;;;;4.97;4.30;;;;;;;0.81;73.90;96096.78;5052976;28;20420;-59
2020/12/27 01:29:00;;;;;;;5.60;4.23;;;;;;;0.78;73.41;96086.75;5053694;28;20179;-57
2020/12/27 01:31:26;;;;;;;7.20;4.80;;;;;;;0.94;73.46;96096.22;5053811;28;20463;-57
2020/12/27 01:33:53;;;;;;;5.57;4.77;;;;;;;0.80;74.48;96089.16;5053714;28;20456;-58
2020/12/27 01:36:32;;;;;;;7.03;4.50;;;;;;;0.97;74.00;96085.50;5053007;28;20576;-60
2020/12/27 01:38:59;;;;;;;7.43;4.73;;;;;;;1.08;74.14;96079.13;5053213;28;20907;-59
2020/12/27 01:41:25;;;;;;;6.27;5.03;;;;;;;1.12;73.21;96073.44;5053558;28;20418;-58
2020/12/27 01:43:57;;;;;;;5.73;5.07;;;;;;;1.10;73.78;96062.47;5053622;28;20409;-59
2020/12/27 01:46:23;;;;;;;6.47;4.77;;;;;;;1.29;72.78;96056.78;5052408;28;20657;-58
2020/12/27 01:48:48;;;;;;;6.73;5.50;;;;;;;1.43;71.88;96052.63;5053374;28;20410;-59
2020/12/27 01:51:14;;;;;;;7.30;5.50;;;;;;;1.53;72.62;96048.78;5053281;28;20580;-59
2020/12/27 01:53:39;;;;;;;6.40;5.03;;;;;;;1.47;72.24;96039.13;5052887;28;20195;-59
2020/12/27 01:56:11;;;;;;;6.77;5.53;;;;;;;1.55;72.18;96033.88;5053236;28;20613;-59
2020/12/27 01:58:39;;;;;;;7.93;5.03;;;;;;;1.62;72.15;96021.03;5052745;28;20197;-57
2020/12/27 02:01:05;;;;;;;6.83;5.30;;;;;;;1.62;70.96;96008.88;5053102;28;20430;-59
2020/12/27 02:03:30;;;;;;;5.43;4.90;;;;;;;1.60;71.31;96002.28;5053100;28;20888;-57
2020/12/27 02:05:56;;;;;;;8.40;5.03;;;;;;;1.64;71.24;95993.19;5053206;28;20178;-59
2020/12/27 02:08:22;;;;;;;5.60;4.80;;;;;;;1.49;70.59;95988.00;5052100;28;20628;-59
2020/12/27 02:10:50;;;;;;;6.07;4.70;;;;;;;1.28;72.59;95969.81;5053339;28;20191;-59
2020/12/27 02:13:16;;;;;;;6.50;5.17;;;;;;;1.31;71.92;95960.88;5052601;28;20668;-58
2020/12/27 02:15:42;;;;;;;7.37;5.17;;;;;;;0.94;72.91;95956.59;5053457;28;20406;-58
2020/12/27 02:18:07;;;;;;;5.60;4.50;;;;;;;0.68;73.64;95961.34;5052808;28;20622;-58
2020/12/27 02:20:32;;;;;;;5.90;4.20;;;;;;;0.59;74.93;95949.47;5053031;28;20662;-59
2020/12/27 02:22:58;;;;;;;7.30;4.27;;;;;;;0.79;74.38;95930.72;5052782;28;20202;-59
2020/12/27 02:25:23;;;;;;;6.37;4.90;;;;;;;0.97;72.95;95936.34;5053117;28;20213;-57
2020/12/27 02:27:49;;;;;;;7.70;4.33;;;;;;;0.91;73.43;95931.06;5052461;28;20516;-59
2020/12/27 02:30:16;;;;;;;7.83;4.10;;;;;;;0.78;73.85;95918.75;5052606;28;20253;-57
2020/12/27 02:32:41;;;;;;;6.10;4.90;;;;;;;0.97;73.99;95917.44;5052518;28;20195;-57
2020/12/27 02:35:06;;;;;;;4.07;3.77;;;;;;;0.86;72.53;95910.13;5052989;28;20485;-57
2020/12/27 02:37:32;;;;;;;4.53;4.13;;;;;;;1.03;71.91;95891.66;5052510;28;20511;-57
2020/12/27 02:39:57;;;;;;;4.20;3.80;;;;;;;0.93;71.29;95882.56;5052834;28;20599;-57
2020/12/27 02:42:23;;;;;;;4.90;3.87;;;;;;;0.92;71.64;95875.81;5052972;28;20657;-58
2020/12/27 02:45:10;;;;;;;5.77;4.23;;;;;;;0.58;72.27;95858.19;5052626;28;20175;-59
2020/12/27 02:47:33;;;;;;;3.93;3.30;;;;;;;0.75;72.23;95853.69;5052105;28;20187;-57
2020/12/27 02:49:59;;;;;;;4.93;3.73;;;;;;;1.00;71.76;95844.66;5052279;28;20445;-57
2020/12/27 02:52:24;;;;;;;6.17;4.23;;;;;;;0.89;70.34;95840.75;5052801;28;20509;-59
2020/12/27 02:54:49;;;;;;;5.60;4.33;;;;;;;0.78;70.75;95837.84;5052964;28;20175;-57
2020/12/27 02:57:15;;;;;;;9.17;4.83;;;;;;;0.30;71.70;95831.34;5052460;28;20174;-58
2020/12/27 02:59:40;;;;;;;5.50;3.60;;;;;;;0.38;71.73;95822.75;5055640;28;20191;-58
2020/12/27 03:02:05;;;;;;;4.50;4.03;;;;;;;0.13;72.44;95816.97;5056145;28;20539;-59
2020/12/27 03:04:31;;;;;;;6.30;5.40;;;;;;;0.31;72.41;95806.34;5054895;28;20195;-58
2020/12/27 03:06:56;;;;;;;4.70;3.60;;;;;;;-0.34;74.05;95806.88;5056278;28;20182;-57
2020/12/27 03:09:21;;;;;;;9.23;4.77;;;;;;;-0.17;75.26;95797.25;5056487;28;20198;-57
2020/12/27 03:11:47;;;;;;;9.20;3.60;;;;;;;-0.07;73.86;95780.53;5055794;28;20248;-58
2020/12/27 03:14:13;;;;;;;3.93;3.60;;;;;;;0.33;72.63;95783.69;5055896;28;20203;-59
2020/12/27 03:16:38;;;;;;;6.80;4.50;;;;;;;0.28;72.43;95775.69;5055931;28;20167;-59
2020/12/27 03:19:04;;;;;;;6.23;4.57;;;;;;;0.23;72.33;95781.41;5056102;28;20490;-56
2020/12/27 03:21:29;;;;;;;4.40;4.00;;;;;;;0.52;71.92;95778.84;5055763;28;20638;-59
2020/12/27 03:23:55;;;;;;;7.57;4.90;;;;;;;0.63;71.31;95777.59;5055792;28;20178;-57
2020/12/27 03:26:20;;;;;;;6.00;4.53;;;;;;;0.76;70.23;95777.75;5055894;28;20221;-60
2020/12/27 03:28:45;;;;;;;6.53;4.30;;;;;;;0.31;72.45;95772.78;5056142;28;20201;-59
2020/12/27 03:31:11;;;;;;;6.50;4.17;;;;;;;0.65;71.10;95778.22;5056265;28;20542;-59
2020/12/27 03:33:36;;;;;;;7.40;4.73;;;;;;;0.50;71.30;95774.81;5055886;28;20203;-57
2020/12/27 03:36:02;;;;;;;5.93;4.57;;;;;;;0.52;71.10;95768.50;5055984;28;20209;-57
2020/12/27 03:38:27;;;;;;;5.00;4.27;;;;;;;0.45;71.70;95770.19;5054858;28;20183;-59
2020/12/27 03:40:53;;;;;;;5.40;4.33;;;;;;;0.51;71.13;95763.47;5055491;28;20210;-59
2020/12/27 03:43:18;;;;;;;5.87;5.03;;;;;;;0.83;70.35;95765.72;5054810;28;20244;-59
2020/12/27 03:45:44;;;;;;;6.47;4.70;;;;;;;0.60;70.65;95754.66;5055649;28;20179;-60
2020/12/27 03:48:09;;;;;;;5.97;4.73;;;;;;;0.74;70.00;95746.13;5055349;28;20692;-57
2020/12/27 03:50:34;;;;;;;5.43;4.13;;;;;;;0.75;71.44;95733.00;5055569;28;20198;-59
2020/12/27 03:53:00;;;;;;;4.87;4.43;;;;;;;0.75;71.66;95720.09;5054335;28;20209;-59
2020/12/27 03:55:25;;;;;;;4.63;4.00;;;;;;;0.73;70.42;95716.06;5054873;28;20225;-57
2020/12/27 03:57:51;;;;;;;5.60;4.80;;;;;;;0.62;70.99;95713.94;5054803;28;20186;-57
2020/12/27 04:00:16;;;;;;;5.03;3.93;;;;;;;0.22;71.54;95699.72;5055230;28;20233;-56
2020/12/27 04:02:42;;;;;;;5.47;4.13;;;;;;;-0.01;72.43;95693.84;5053869;28;20168;-57
2020/12/27 04:05:07;;;;;;;8.70;4.30;;;;;;;-0.12;73.50;95682.19;5055398;28;20182;-57
2020/12/27 04:07:32;;;;;;;5.00;4.00;;;;;;;0.08;73.66;95661.81;5054932;28;20220;-59
2020/12/27 04:09:59;;;;;;;5.53;4.53;;;;;;;0.17;72.51;95663.31;5054674;28;20195;-59
2020/12/27 04:12:24;;;;;;;6.10;4.17;;;;;;;0.54;72.61;95649.47;5054980;28;20189;-58
2020/12/27 04:14:50;;;;;;;6.50;4.80;;;;;;;0.54;70.64;95654.63;5055267;28;20747;-57
2020/12/27 04:17:15;;;;;;;5.37;4.43;;;;;;;0.34;72.40;95656.19;5054022;28;20488;-57
2020/12/27 04:19:41;;;;;;;4.97;4.50;;;;;;;0.14;72.01;95645.59;5054712;28;20202;-57
2020/12/27 04:22:06;;;;;;;5.57;4.70;;;;;;;0.12;72.56;95634.66;5054695;28;20214;-57
2020/12/27 04:24:31;;;;;;;4.90;4.30;;;;;;;0.24;72.36;95625.47;5055256;28;20168;-58
2020/12/27 04:26:57;;;;;;;5.00;4.17;;;;;;;0.42;72.04;95618.13;5054399;28;20254;-59
2020/12/27 04:29:22;;;;;;;5.47;3.60;;;;;;;-0.01;73.58;95613.81;5054748;28;20669;-59
2020/12/27 04:31:51;;;;;;;6.17;4.57;;;;;;;-0.04;73.14;95609.81;5054878;28;20170;-59
2020/12/27 04:34:17;;;;;;;6.20;4.63;;;;;;;-0.04;73.94;95606.44;5054879;28;20203;-59
2020/12/27 04:36:42;;;;;;;7.47;4.70;;;;;;;0.06;73.81;95595.81;5054037;28;20474;-57
2020/12/27 04:39:08;;;;;;;5.60;5.00;;;;;;;-0.10;72.97;95586.50;5054094;28;20262;-58
2020/12/27 04:41:33;;;;;;;6.17;4.10;;;;;;;-0.21;74.89;95581.78;5052894;28;20649;-57
2020/12/27 04:43:59;;;;;;;5.20;4.37;;;;;;;-0.05;73.56;95582.41;5054998;28;20166;-59
2020/12/27 04:46:25;;;;;;;4.37;3.97;;;;;;;-0.39;74.56;95578.78;5054260;28;20175;-58
2020/12/27 04:48:53;;;;;;;4.60;4.20;;;;;;;-0.37;75.51;95571.66;5054330;28;20405;-57
2020/12/27 04:51:18;;;;;;;5.20;4.30;;;;;;;-0.66;75.78;95562.13;5054194;28;20758;-58
2020/12/27 04:53:44;;;;;;;5.00;4.50;;;;;;;-0.89;77.82;95560.59;5054504;28;20586;-57
2020/12/27 04:56:09;;;;;;;5.70;4.17;;;;;;;-0.99;78.51;95557.44;5054178;28;20177;-57
2020/12/27 04:58:35;;;;;;;6.60;4.50;;;;;;;-1.19;79.14;95552.78;5053687;28;20541;-58
2020/12/27 05:01:02;;;;;;;5.87;4.60;;;;;;;-0.90;78.72;95546.88;5053801;28;20562;-56
2020/12/27 05:03:28;;;;;;;5.77;4.90;;;;;;;-0.84;78.39;95541.03;5054594;28;20174;-57
2020/12/27 05:05:54;;;;;;;7.00;4.20;;;;;;;-0.97;78.92;95546.00;5052678;28;20508;-59
2020/12/27 05:08:20;;;;;;;7.47;4.77;;;;;;;-0.82;78.48;95535.69;5053749;28;20487;-58
2020/12/27 05:10:47;;;;;;;6.53;4.50;;;;;;;-0.88;78.39;95538.97;5054496;28;20454;-58
2020/12/27 05:13:14;;;;;;;6.90;4.93;;;;;;;-1.08;79.17;95528.38;5053967;28;20464;-59
2020/12/27 05:15:40;;;;;;;7.73;5.10;;;;;;;-0.86;79.07;95531.88;5053313;28;20421;-56
2020/12/27 05:18:06;;;;;;;4.10;3.40;;;;;;;-0.90;78.72;95533.19;5053691;28;20409;-59
2020/12/27 05:20:33;;;;;;;6.93;4.63;;;;;;;-0.78;78.61;95521.50;5052816;28;20271;-57
2020/12/27 05:23:00;;;;;;;6.97;4.40;;;;;;;-0.95;78.62;95512.31;5053656;28;20455;-57
2020/12/27 05:25:28;;;;;;;5.17;4.47;;;;;;;-0.82;78.66;95502.19;5053748;28;20413;-57
2020/12/27 05:27:54;;;;;;;6.93;4.90;;;;;;;-1.07;79.86;95497.28;5053307;28;20978;-57
2020/12/27 05:30:27;;;;;;;4.13;3.43;;;;;;;-1.17;80.67;95498.50;5053707;28;20429;-58
2020/12/27 05:32:54;;;;;;;5.07;4.57;;;;;;;-0.65;79.72;95501.84;5053763;28;20447;-58
2020/12/27 05:35:20;;;;;;;6.60;4.20;;;;;;;-0.80;79.04;95485.59;5052885;28;20926;-58
2020/12/27 05:37:46;;;;;;;8.13;5.00;;;;;;;-0.77;79.69;95486.97;5053303;28;20809;-57
2020/12/27 05:40:13;;;;;;;5.17;4.67;;;;;;;-0.93;79.99;95482.00;5053442;28;20436;-57
2020/12/27 05:42:39;;;;;;;5.00;4.50;;;;;;;-1.02;81.16;95473.56;5053711;28;20435;-57
2020/12/27 05:45:14;;;;;;;4.80;4.30;;;;;;;-0.71;80.28;95469.06;5053583;28;20436;-58
2020/12/27 05:47:42;;;;;;;4.20;3.63;;;;;;;-0.69;79.39;95461.91;5052825;28;20174;-56
2020/12/27 05:50:17;;;;;;;8.30;4.40;;;;;;;-0.83;80.28;95454.22;5053110;28;20535;-58
2020/12/27 05:52:58;;;;;;;5.63;4.27;;;;;;;-1.07;80.90;95450.13;5053595;28;20527;-57
2020/12/27 05:55:24;;;;;;;9.27;5.83;;;;;;;-0.64;80.29;95433.03;5053380;28;20417;-57
2020/12/27 05:57:54;;;;;;;5.20;4.13;;;;;;;-0.93;80.86;95430.47;5053049;28;20420;-59
2020/12/27 06:00:23;;;;;;;6.60;5.17;;;;;;;-1.10;81.23;95416.94;5053420;28;20494;-59
2020/12/27 06:02:59;;;;;;;4.80;4.23;;;;;;;-1.08;82.28;95410.66;5052766;28;20424;-57
2020/12/27 06:05:53;;;;;;;6.43;4.50;;;;;;;-0.80;81.23;95402.28;5052952;28;20515;-57
2020/12/27 06:08:28;;;;;;;3.80;3.50;;;;;;;-0.87;80.29;95402.19;5052670;28;20425;-58
2020/12/27 06:11:00;;;;;;;5.40;3.90;;;;;;;-0.88;80.67;95410.09;5052978;28;20444;-59
2020/12/27 06:13:28;;;;;;;8.23;4.63;;;;;;;-1.05;81.80;95401.75;5053014;28;20507;-57
2020/12/27 06:15:56;;;;;;;6.10;4.67;;;;;;;-0.91;81.65;95395.81;5052747;28;20436;-59
2020/12/27 06:18:26;;;;;;;3.07;2.77;;;;;;;-1.01;80.94;95381.59;5052438;28;20460;-59
2020/12/27 06:21:19;;;;;;;4.67;3.90;;;;;;;-0.70;81.26;95374.44;5051837;28;21076;-58
2020/12/27 06:23:46;;;;;;;6.30;4.77;;;;;;;-0.71;81.25;95360.75;5032642;28;20797;-57
2020/12/27 06:26:12;;;;;;;6.67;3.77;;;;;;;-0.78;80.40;95354.72;5033305;28;20415;-57
2020/12/27 06:28:37;;;;;;;4.70;3.67;;;;;;;-0.96;81.12;95351.72;5032793;28;20405;-58
2020/12/27 06:31:07;;;;;;;7.60;4.20;;;;;;;-0.57;80.00;95344.44;5042470;28;20236;-58
2020/12/27 06:33:42;;;;;;;4.63;3.60;;;;;;;-0.90;80.74;95351.00;5054631;28;20201;-58
2020/12/27 06:36:31;;;;;;;4.20;3.80;;;;;;;-0.58;79.95;95345.41;5057193;28;20419;-57
2020/12/27 06:38:56;;;;;;;4.57;3.97;;;;;;;-0.38;78.10;95343.84;5056937;28;20479;-57
2020/12/27 06:41:22;;;;;;;6.10;3.90;;;;;;;-0.22;77.68;95341.00;5057019;28;20422;-57
2020/12/27 06:43:47;;;;;;;4.90;4.43;;;;;;;-0.20;77.88;95339.06;5056602;28;20228;-57
2020/12/27 06:46:45;;;;;;;4.27;3.87;;;;;;;-0.35;78.07;95330.59;5056681;28;20285;-59
2020/12/27 06:49:15;;;;;;;4.20;3.47;;;;;;;-0.27;77.78;95319.31;5056860;28;20293;-57
2020/12/27 06:51:42;;;;;;;4.80;3.83;;;;;;;-0.53;78.61;95321.69;5056710;28;20475;-59
2020/12/27 06:54:08;;;;;;;3.63;3.33;;;;;;;-0.35;78.02;95316.88;5056759;28;20950;-59
2020/12/27 06:56:45;;;;;;;4.77;4.13;;;;;;;-0.49;78.61;95315.94;5056404;28;20430;-59
2020/12/27 06:59:11;;;;;;;4.10;3.70;;;;;;;-0.43;77.59;95320.38;5056404;28;20470;-57
2020/12/27 07:01:37;;;;;;;4.53;4.10;;;;;;;-0.44;77.25;95305.91;5056554;28;20488;-57
2020/12/27 07:04:12;;;;;;;6.87;4.57;;;;;;;-0.43;77.96;95315.22;5056609;28;20640;-57
2020/12/27 07:06:45;;;;;;;5.53;3.53;;;;;;;-0.51;78.39;95296.50;5054377;28;20181;-57
2020/12/27 07:09:18;;;;;;;4.20;3.77;;;;;;;-0.36;77.00;95292.06;5055770;28;20983;-57
2020/12/27 07:11:44;;;;;;;3.87;3.40;;;;;;;-0.15;77.15;95285.13;5056236;28;20405;-59
2020/12/27 07:14:12;;;;;;;7.10;4.17;;;;;;;0.15;74.71;95280.56;5056407;28;20469;-57
2020/12/27 07:16:48;;;;;;;5.10;3.10;;;;;;;0.35;73.89;95272.94;5055967;28;20413;-57
2020/12/27 07:19:15;;;;;;;6.33;3.60;;;;;;;0.30;74.50;95259.81;5056234;28;20436;-59
2020/12/27 07:21:43;;;;;;;4.10;3.10;;;;;;;-0.28;75.28;95256.63;5056025;28;20437;-58
2020/12/27 07:24:08;;;;;;;5.50;3.90;;;;;;;-0.31;77.46;95256.97;5055849;28;20425;-59
2020/12/27 07:26:44;;;;;;;5.07;4.53;;;;;;;0.04;76.45;95257.84;5055480;28;20511;-59
2020/12/27 07:29:11;;;;;;;5.23;4.03;;;;;;;0.24;74.88;95270.88;5055926;28;20190;-59
2020/12/27 07:31:38;;;;;;;5.50;4.30;;;;;;;0.42;74.02;95258.28;5056074;28;20414;-57
2020/12/27 07:34:05;;;;;;;5.73;4.23;;;;;;;0.30;74.38;95262.38;5056039;28;20480;-59
2020/12/27 07:36:33;;;;;;;6.03;4.27;;;;;;;0.17;75.33;95257.94;5055995;28;20510;-59
2020/12/27 07:39:01;;;;;;;4.97;4.47;;;;;;;-0.01;75.81;95255.03;5054133;28;20800;-57
2020/12/27 07:41:47;;;;;;;4.50;4.10;;;;;;;0.35;75.47;95250.50;5055488;28;20425;-57
2020/12/27 07:44:14;;;;;;;4.90;4.20;;;;;;;0.26;74.76;95240.50;5055445;28;20808;-57
2020/12/27 07:46:44;;;;;;;5.00;4.00;;;;;;;0.38;73.85;95229.44;5055465;28;20474;-58
2020/12/27 07:49:10;;;;;;;4.20;3.80;;;;;;;0.36;74.28;95230.66;5055324;28;20426;-57
2020/12/27 07:51:36;;;;;;;4.30;3.73;;;;;;;0.22;74.63;95234.16;5055787;28;20758;-59
2020/12/27 07:54:04;;;;;;;7.30;3.90;;;;;;;0.24;75.60;95214.88;5055541;28;20448;-59
2020/12/27 07:56:31;;;;;;;4.07;3.70;;;;;;;-0.22;75.71;95219.75;5055121;28;20180;-57
2020/12/27 07:58:58;;;;;;;5.50;3.50;;;;;;;0.03;76.05;95214.97;5054785;28;20422;-59
2020/12/27 08:01:34;;;;;;;9.27;4.27;;;;;;;-0.01;75.84;95203.41;5055623;28;20785;-57
2020/12/27 08:04:00;;;;;;;4.97;3.53;;;;;;;-0.10;76.01;95194.22;5055399;28;20406;-58
2020/12/27 08:06:28;;;;;;;4.40;4.00;;;;;;;0.17;75.37;95182.25;5054669;28;20440;-57
2020/12/27 08:09:06;;;;;;;6.37;4.80;;;;;;;0.23;75.65;95178.94;5055297;28;20409;-57
2020/12/27 08:11:33;;;;;;;4.07;3.63;;;;;;;-0.23;75.85;95171.72;5055164;28;20426;-57
2020/12/27 08:14:04;;;;;;;4.20;3.80;;;;;;;-0.06;75.53;95162.72;5054603;28;20496;-59
2020/12/27 08:16:31;;;;;;;5.27;4.20;;;;;;;0.09;76.03;95157.44;5054518;28;20420;-59
2020/12/27 08:19:13;;;;;;;4.73;4.33;;;;;;;0.35;74.40;95162.69;5055213;28;20409;-57
2020/12/27 08:21:41;;;;;;;4.50;4.10;;;;;;;0.48;74.82;95167.13;5055235;28;20408;-57
2020/12/27 08:24:09;;;;;;;4.13;3.73;;;;;;;0.61;73.38;95167.16;5054551;28;20422;-58
2020/12/27 08:26:46;;;;;;;5.83;4.47;;;;;;;0.63;73.42;95158.25;5052757;28;20908;-58
2020/12/27 08:29:18;;;;;;;4.47;3.60;;;;;;;0.63;73.76;95149.69;5055109;28;20425;-61
2020/12/27 08:31:48;;;;;;;5.40;4.40;;;;;;;0.78;73.18;95148.53;5054663;28;20471;-60
2020/12/27 08:34:15;;;;;;;5.37;4.60;;;;;;;1.10;71.58;95139.25;5054853;28;20469;-60
2020/12/27 08:36:48;;;;;;;6.53;4.67;;;;;;;1.19;71.23;95135.47;5054611;28;20463;-58
2020/12/27 08:39:36;;;;;;;5.03;3.93;;;;;;;1.31;70.26;95153.75;5054757;28;20433;-59
2020/12/27 08:42:10;;;;;;;4.40;3.70;;;;;;;1.06;71.84;95145.81;5054804;28;20433;-60
2020/12/27 08:44:57;;;;;;;8.17;6.30;;;;;;;1.22;71.28;95140.25;5054648;28;20941;-61
2020/12/27 08:47:50;;;;;;;6.00;5.03;;;;;;;1.35;71.17;95145.44;5054240;28;20459;-58
2020/12/27 08:50:22;;;;;;;6.60;4.33;;;;;;;1.30;70.54;95139.25;5052653;28;20515;-58
2020/12/27 08:52:51;;;;;;;5.37;4.17;;;;;;;0.98;71.10;95125.28;5054633;28;20442;-58
2020/12/27 08:55:25;;;;;;;5.40;4.30;;;;;;;0.93;71.31;95118.13;5054207;28;20402;-57
2020/12/27 08:57:51;;;;;;;4.60;4.20;;;;;;;0.72;71.87;95107.19;5053790;28;20485;-60
2020/12/27 09:00:18;;;;;;;4.87;4.47;;;;;;;0.64;73.02;95105.56;5054358;28;20465;-60
2020/12/27 09:02:44;;;;;;;5.60;5.00;;;;;;;0.99;72.07;95101.84;5053973;28;20414;-57
2020/12/27 09:05:13;;;;;;;5.73;4.57;;;;;;;1.09;71.67;95101.44;5053784;28;20433;-57
2020/12/27 09:07:41;;;;;;;7.50;4.60;;;;;;;1.36;69.94;95090.09;5053504;28;20656;-59
2020/12/27 09:10:11;;;;;;;5.00;4.00;;;;;;;1.24;69.70;95090.91;5054104;28;20922;-61
2020/12/27 09:12:37;;;;;;;4.70;4.20;;;;;;;1.08;70.76;95073.19;5053958;28;20439;-58
2020/12/27 09:15:26;;;;;;;4.07;3.77;;;;;;;0.68;69.64;95073.19;5053386;28;20448;-60
2020/12/27 09:18:12;;;;;;;4.73;3.63;;;;;;;0.90;69.80;95064.25;5053018;28;20422;-61
2020/12/27 09:20:39;;;;;;;4.30;3.90;;;;;;;0.65;69.65;95044.34;5054003;28;20482;-58
2020/12/27 09:23:16;;;;;;;4.33;3.67;;;;;;;0.85;69.15;95050.34;5053850;28;20414;-57
2020/12/27 09:25:43;;;;;;;5.23;3.50;;;;;;;1.03;69.41;95038.38;5048140;28;20432;-60
2020/12/27 09:28:19;;;;;;;4.37;3.97;;;;;;;1.05;68.73;95026.06;5053426;28;20864;-60
2020/12/27 09:31:01;;;;;;;5.10;3.63;;;;;;;1.19;67.99;95013.13;5053089;28;20517;-61
2020/12/27 09:33:29;;;;;;;5.50;4.20;;;;;;;1.16;68.49;95021.28;5045569;28;20872;-57
2020/12/27 09:35:59;;;;;;;5.00;3.50;;;;;;;1.04;69.26;95018.50;5053693;28;20459;-61
2020/12/27 09:38:29;;;;;;;4.83;4.00;;;;;;;0.98;68.46;95003.78;5053365;28;20497;-60
2020/12/27 09:41:08;;;;;;;4.70;4.20;;;;;;;1.10;68.15;94997.03;5053377;28;20517;-57
2020/12/27 09:43:58;;;;;;;5.50;4.27;;;;;;;1.22;68.78;94984.25;5053010;28;20422;-58
2020/12/27 09:46:43;;;;;;;6.60;4.37;;;;;;;0.99;69.17;94976.97;5052817;28;20886;-61
2020/12/27 09:49:23;;;;;;;5.17;3.50;;;;;;;1.16;69.53;94967.00;5053017;28;20449;-58
2020/12/27 09:52:08;;;;;;;5.33;4.40;;;;;;;1.91;68.35;94951.56;5053529;28;20516;-57
2020/12/27 09:54:35;;;;;;;5.70;4.27;;;;;;;2.30;67.24;94945.38;5053352;28;20449;-57
2020/12/27 09:57:13;;;;;;;5.57;4.20;;;;;;;2.24;66.11;94933.25;5053027;28;20411;-61
2020/12/27 09:59:39;;;;;;;5.80;5.30;;;;;;;2.46;66.60;94917.16;5052033;28;20439;-61
2020/12/27 10:02:05;;;;;;;4.77;3.83;;;;;;;2.45;64.78;94904.41;5052417;28;21188;-57
2020/12/27 10:04:31;;;;;;;5.30;4.67;;;;;;;2.70;64.62;94897.44;5052896;28;20436;-61
2020/12/27 10:06:57;;;;;;;4.63;4.17;;;;;;;2.91;64.44;94904.81;5052582;28;20538;-58
2020/12/27 10:09:22;;;;;;;4.70;4.20;;;;;;;3.08;63.52;94885.06;5053265;28;20431;-61
2020/12/27 10:11:47;;;;;;;4.33;3.70;;;;;;;2.85;64.18;94869.34;5052839;28;20173;-59
2020/12/27 10:14:13;;;;;;;5.33;3.90;;;;;;;2.60;65.94;94845.25;5053076;28;20557;-57
2020/12/27 10:16:38;;;;;;;3.83;3.53;;;;;;;2.91;65.29;94845.97;5049338;28;20260;-60
2020/12/27 10:19:03;;;;;;;5.50;4.00;;;;;;;3.18;63.57;94849.03;5049354;28;20192;-62
2020/12/27 10:21:29;;;;;;;4.10;3.70;;;;;;;2.75;64.17;94850.91;5049681;28;20225;-59
2020/12/27 10:23:55;;;;;;;4.13;3.50;;;;;;;2.90;64.06;94830.59;5049073;28;20274;-59
2020/12/27 10:26:20;;;;;;;4.70;3.87;;;;;;;2.96;63.86;94835.72;5049305;28;20635;-62
2020/12/27 10:28:45;;;;;;;4.37;3.97;;;;;;;2.88;64.31;94817.84;5049195;28;20489;-60
2020/12/27 10:31:11;;;;;;;4.60;3.73;;;;;;;3.02;64.00;94808.94;5049528;28;20188;-59
2020/12/27 10:33:37;;;;;;;3.70;3.37;;;;;;;2.83;63.91;94794.38;5050911;28;20258;-62
2020/12/27 10:36:02;;;;;;;3.83;3.50;;;;;;;3.27;63.67;94790.66;5033036;28;20200;-58
2020/12/27 10:38:28;;;;;;;3.50;3.20;;;;;;;3.60;62.67;94764.25;5045937;28;20172;-58
2020/12/27 10:40:53;;;;;;;4.80;3.97;;;;;;;3.42;61.80;94761.72;5052363;28;20216;-58
2020/12/27 10:43:19;;;;;;;4.37;3.80;;;;;;;3.60;61.96;94749.47;5052712;28;20226;-61
2020/12/27 10:45:45;;;;;;;3.73;3.47;;;;;;;3.43;61.42;94758.09;5049745;28;20261;-59
2020/12/27 10:48:10;;;;;;;4.40;3.40;;;;;;;3.41;60.36;94734.16;5032588;28;20170;-60
2020/12/27 10:50:40;;;;;;;4.30;3.60;;;;;;;3.25;61.52;94742.56;5032875;28;20927;-58
2020/12/27 10:53:05;;;;;;;4.60;3.93;;;;;;;3.44;62.35;94724.16;5032851;28;20209;-57
2020/12/27 10:55:30;;;;;;;4.10;3.40;;;;;;;3.44;60.49;94718.97;5042817;28;20517;-61
2020/12/27 10:57:56;;;;;;;4.73;3.90;;;;;;;3.10;60.75;94712.63;5051776;28;20689;-58
2020/12/27 11:00:21;;;;;;;7.00;3.53;;;;;;;3.26;61.60;94695.66;5052852;28;20193;-58
2020/12/27 11:02:47;;;;;;;3.30;3.00;;;;;;;3.38;61.45;94695.69;5052822;28;20205;-58
2020/12/27 11:05:12;;;;;;;5.13;4.00;;;;;;;3.66;60.15;94690.66;5053132;28;20177;-61
2020/12/27 11:07:37;;;;;;;4.67;3.77;;;;;;;3.94;60.09;94677.78;5050880;28;20196;-57
2020/12/27 11:10:03;;;;;;;5.30;4.20;;;;;;;3.45;60.55;94684.19;5052180;28;20211;-69
2020/12/27 11:12:28;;;;;;;5.30;4.63;;;;;;;3.58;60.93;94662.44;5051266;28;20213;-64
2020/12/27 11:14:54;;;;;;;6.67;4.80;;;;;;;3.84;60.22;94667.19;5052158;28;20183;-62
2020/12/27 11:17:19;;;;;;;6.10;5.00;;;;;;;3.81;61.26;94654.66;5051374;28;20263;-62
2020/12/27 11:19:44;;;;;;;4.50;4.10;;;;;;;3.93;60.54;94650.25;5053982;28;20213;-60
2020/12/27 11:22:10;;;;;;;5.10;4.10;;;;;;;3.46;59.65;94643.47;5056084;28;20598;-60
2020/12/27 11:24:35;;;;;;;4.37;3.97;;;;;;;3.43;60.62;94628.31;5056021;28;20183;-65
2020/12/27 11:27:01;;;;;;;4.80;4.30;;;;;;;3.66;60.96;94625.75;5054559;28;20183;-63
2020/12/27 11:29:26;;;;;;;4.30;3.90;;;;;;;3.56;60.04;94623.72;5055945;28;20197;-57
2020/12/27 11:31:53;;;;;;;5.13;4.63;;;;;;;3.32;61.45;94603.13;5056155;28;20259;-55
2020/12/27 11:34:19;;;;;;;5.50;4.80;;;;;;;3.42;62.02;94598.19;5056089;28;20230;-59
2020/12/27 11:36:48;;;;;;;5.50;4.97;;;;;;;3.27;62.61;94583.06;5055347;28;20534;-64
2020/12/27 11:39:14;;;;;;;4.67;4.17;;;;;;;3.03;62.90;94576.25;5054390;28;20284;-58
2020/12/27 11:41:39;;;;;;;6.00;4.90;;;;;;;3.12;64.27;94549.78;5055142;28;20956;-59
2020/12/27 11:44:04;;;;;;;6.37;4.47;;;;;;;3.27;63.61;94535.56;5054244;28;20176;-65